Time;durP1;ratioP1;P1;durP2;ratioP2;P2;SDS_P1;SDS_P2;PMS_P1;PMS_P2;Temp;Humidity;BMP_temperature;BMP_pressure;BME280_temperature;BME280_humidity;BME280_pressure;Samples;Min_cycle;Max_cycle;Signal;HPM_P1;HPM_P2
2023/04/23 00:01:38;;;;;;;4.57;3.97;;;15.30;99.90;;;;;;4907917;29;20204;-70
2023/04/23 00:04:05;;;;;;;3.47;3.10;;;15.30;99.70;;;;;;4911638;29;20737;-70
2023/04/23 00:06:31;;;;;;;2.90;2.42;;;15.40;98.40;;;;;;4909650;29;20199;-70
2023/04/23 00:08:59;;;;;;;3.17;2.88;;;15.20;98.20;;;;;;4910889;29;20265;-71
2023/04/23 00:11:25;;;;;;;3.55;2.70;;;15.40;98.20;;;;;;4907670;29;20210;-70
2023/04/23 00:13:51;;;;;;;3.55;2.90;;;15.50;98.20;;;;;;4910773;29;20190;-70
2023/04/23 00:16:19;;;;;;;2.73;2.50;;;15.50;97.90;;;;;;4906361;29;20183;-70
2023/04/23 00:18:44;;;;;;;2.97;2.70;;;15.40;97.90;;;;;;4910377;29;20569;-70
2023/04/23 00:21:10;;;;;;;2.50;2.30;;;15.40;97.90;;;;;;4908481;29;20752;-70
2023/04/23 00:23:37;;;;;;;5.50;3.60;;;15.60;97.70;;;;;;4911385;29;20226;-68
2023/04/23 00:26:03;;;;;;;2.70;2.50;;;15.40;97.90;;;;;;4907005;29;20551;-68
2023/04/23 00:28:29;;;;;;;2.63;2.40;;;15.70;98.30;;;;;;4909485;29;20649;-68
2023/04/23 00:30:55;;;;;;;4.23;2.50;;;15.40;98.10;;;;;;4909070;29;20477;-70
2023/04/23 00:33:20;;;;;;;2.73;2.53;;;15.50;98.40;;;;;;4910681;29;20190;-68
2023/04/23 00:35:46;;;;;;;2.50;2.30;;;15.50;98.90;;;;;;4915177;29;20189;-68
2023/04/23 00:38:12;;;;;;;2.60;2.40;;;15.60;98.80;;;;;;4910980;29;20233;-67
2023/04/23 00:40:37;;;;;;;3.00;2.70;;;15.40;99.00;;;;;;4911613;29;20644;-68
2023/04/23 00:43:03;;;;;;;4.20;2.50;;;15.60;99.60;;;;;;4914857;29;20223;-68
2023/04/23 00:45:29;;;;;;;4.75;2.60;;;15.50;99.60;;;;;;4912951;29;20667;-68
2023/04/23 00:47:55;;;;;;;4.23;2.70;;;15.50;99.80;;;;;;4917043;29;20196;-68
2023/04/23 00:50:21;;;;;;;2.45;2.25;;;15.50;99.90;;;;;;4912913;29;20214;-68
2023/04/23 00:52:46;;;;;;;3.37;2.30;;;15.40;99.90;;;;;;4911381;29;20677;-68
2023/04/23 00:55:12;;;;;;;4.67;2.80;;;15.40;99.90;;;;;;4912614;29;20205;-68
2023/04/23 00:57:38;;;;;;;3.60;2.37;;;15.20;99.90;;;;;;4913504;29;20682;-68
2023/04/23 01:00:06;;;;;;;2.65;2.45;;;15.60;99.90;;;;;;4908544;29;20217;-68
2023/04/23 01:02:33;;;;;;;4.15;2.53;;;15.30;99.90;;;;;;4912688;29;20312;-68
2023/04/23 01:05:02;;;;;;;2.30;2.05;;;15.40;99.90;;;;;;4915648;29;20209;-68
2023/04/23 01:07:28;;;;;;;3.47;2.35;;;15.20;99.90;;;;;;4909902;29;20537;-68
2023/04/23 01:09:54;;;;;;;2.80;2.50;;;15.50;99.90;;;;;;4909220;29;20214;-68
2023/04/23 01:12:20;;;;;;;2.63;2.42;;;15.10;99.90;;;;;;4908858;29;20263;-68
2023/04/23 01:14:46;;;;;;;3.40;2.40;;;15.10;99.90;;;;;;4914707;29;20209;-68
2023/04/23 01:17:12;;;;;;;2.78;2.20;;;15.20;99.90;;;;;;4913308;29;20182;-70
2023/04/23 01:19:38;;;;;;;2.50;2.30;;;15.20;99.90;;;;;;4912959;29;20241;-68
2023/04/23 01:22:14;;;;;;;4.60;2.53;;;15.10;99.90;;;;;;4910569;29;20218;-68
2023/04/23 01:24:41;;;;;;;3.38;2.45;;;15.20;99.90;;;;;;4912337;29;20201;-68
2023/04/23 01:27:07;;;;;;;2.10;2.00;;;15.20;99.90;;;;;;4912127;29;20613;-68
2023/04/23 01:29:33;;;;;;;2.33;2.13;;;15.30;99.90;;;;;;4912720;29;20301;-68
2023/04/23 01:31:59;;;;;;;2.22;2.10;;;15.30;99.90;;;;;;4907731;29;20300;-68
2023/04/23 01:34:25;;;;;;;2.35;2.15;;;15.30;99.90;;;;;;4912483;29;20190;-68
2023/04/23 01:36:53;;;;;;;4.13;3.70;;;15.00;99.90;;;;;;4914374;29;20198;-69
2023/04/23 01:39:19;;;;;;;2.78;2.47;;;15.10;99.90;;;;;;4912820;29;20198;-68
2023/04/23 01:41:46;;;;;;;2.53;2.33;;;15.30;99.90;;;;;;4911272;29;20277;-69
2023/04/23 01:44:12;;;;;;;6.70;3.58;;;15.00;99.90;;;;;;4911440;29;20193;-68
2023/04/23 01:46:37;;;;;;;2.90;2.60;;;14.80;99.90;;;;;;4910240;29;20202;-68
2023/04/23 01:49:03;;;;;;;3.27;2.40;;;14.90;99.90;;;;;;4911324;29;20226;-68
2023/04/23 01:51:29;;;;;;;2.43;2.23;;;15.00;99.90;;;;;;4907985;29;20222;-68
2023/04/23 01:53:55;;;;;;;2.45;2.25;;;15.10;99.90;;;;;;4910107;29;20191;-68
2023/04/23 01:56:25;;;;;;;2.60;2.40;;;15.00;99.90;;;;;;4911105;29;20738;-68
2023/04/23 01:58:51;;;;;;;2.60;2.40;;;15.10;99.90;;;;;;4910187;29;20223;-69
2023/04/23 02:01:17;;;;;;;2.80;2.60;;;14.90;99.90;;;;;;4910151;29;20198;-68
2023/04/23 02:03:43;;;;;;;3.60;2.30;;;15.00;99.90;;;;;;4910890;29;20186;-69
2023/04/23 02:06:09;;;;;;;3.42;2.72;;;15.20;99.90;;;;;;4908255;29;20530;-68
2023/04/23 02:08:35;;;;;;;7.60;2.53;;;14.70;99.90;;;;;;4910376;29;20206;-68
2023/04/23 02:11:01;;;;;;;3.35;2.80;;;14.90;99.90;;;;;;4911210;29;20462;-69
2023/04/23 02:13:27;;;;;;;2.80;2.60;;;15.00;99.90;;;;;;4912160;29;20269;-69
2023/04/23 02:15:52;;;;;;;3.90;2.67;;;14.90;99.90;;;;;;4908333;29;20462;-68
2023/04/23 02:18:18;;;;;;;2.90;2.60;;;14.90;99.90;;;;;;4911185;29;20249;-69
2023/04/23 02:20:44;;;;;;;2.80;2.57;;;14.90;99.90;;;;;;4908731;29;20193;-69
2023/04/23 02:23:09;;;;;;;3.40;3.10;;;14.70;99.90;;;;;;4909783;29;20684;-69
2023/04/23 02:25:37;;;;;;;4.80;3.03;;;14.80;99.90;;;;;;4905368;29;20186;-69
2023/04/23 02:28:05;;;;;;;3.20;2.88;;;14.70;99.90;;;;;;4907630;29;20216;-69
2023/04/23 02:30:32;;;;;;;3.65;2.78;;;14.70;99.90;;;;;;4903476;29;20222;-69
2023/04/23 02:32:57;;;;;;;4.10;2.90;;;14.70;99.90;;;;;;4909088;29;20652;-69
2023/04/23 02:35:23;;;;;;;2.73;2.53;;;14.80;99.90;;;;;;4907869;29;20209;-69
2023/04/23 02:37:49;;;;;;;3.10;2.50;;;14.70;99.90;;;;;;4910400;29;20230;-69
2023/04/23 02:40:15;;;;;;;2.65;2.40;;;14.70;99.90;;;;;;4909867;29;20225;-69
2023/04/23 02:42:41;;;;;;;2.63;1.90;;;14.50;99.90;;;;;;4909226;29;20222;-68
2023/04/23 02:45:07;;;;;;;2.80;2.60;;;14.60;99.90;;;;;;4906332;29;20555;-68
2023/04/23 02:47:33;;;;;;;2.90;2.60;;;14.70;99.90;;;;;;4910236;29;20446;-69
2023/04/23 02:50:01;;;;;;;2.60;2.40;;;14.70;99.90;;;;;;4905428;29;20206;-69
2023/04/23 02:52:27;;;;;;;2.85;2.60;;;14.50;99.90;;;;;;4910710;29;20198;-69
2023/04/23 02:54:53;;;;;;;2.57;2.20;;;14.50;99.90;;;;;;4906948;29;20195;-69
2023/04/23 02:57:18;;;;;;;2.30;2.00;;;14.40;99.90;;;;;;4909501;29;20194;-70
2023/04/23 02:59:44;;;;;;;2.27;2.07;;;14.40;99.90;;;;;;4909067;29;20202;-69
2023/04/23 03:02:10;;;;;;;2.20;2.00;;;14.40;99.90;;;;;;4907215;29;22035;-68
2023/04/23 03:04:35;;;;;;;2.50;2.30;;;14.60;99.90;;;;;;4911036;29;20198;-69
2023/04/23 03:07:01;;;;;;;1.97;1.87;;;14.30;99.90;;;;;;4912611;29;20190;-69
2023/04/23 03:09:26;;;;;;;1.97;1.87;;;14.50;99.90;;;;;;4909255;29;20225;-69
2023/04/23 03:11:52;;;;;;;1.70;1.60;;;14.50;99.90;;;;;;4909167;29;20218;-69
2023/04/23 03:14:17;;;;;;;2.30;2.10;;;14.50;99.90;;;;;;4905379;29;20555;-69
2023/04/23 03:16:43;;;;;;;4.47;2.10;;;14.20;99.90;;;;;;4908997;29;20224;-68
2023/04/23 03:19:09;;;;;;;1.90;1.80;;;14.40;99.90;;;;;;4910368;29;20696;-68
2023/04/23 03:21:34;;;;;;;2.00;1.90;;;14.20;99.90;;;;;;4908331;29;20198;-69
2023/04/23 03:24:00;;;;;;;1.70;1.60;;;14.10;99.90;;;;;;4910652;29;20191;-69
2023/04/23 03:26:26;;;;;;;2.80;2.00;;;14.30;99.90;;;;;;4907654;29;20193;-68
2023/04/23 03:28:52;;;;;;;2.30;2.10;;;14.10;99.90;;;;;;4911603;29;20206;-69
2023/04/23 03:31:18;;;;;;;2.15;2.05;;;14.30;99.90;;;;;;4907971;29;20265;-69
2023/04/23 03:33:43;;;;;;;2.63;2.23;;;13.90;99.90;;;;;;4907043;29;20190;-69
2023/04/23 03:36:09;;;;;;;3.03;2.80;;;14.00;99.90;;;;;;4910364;29;20202;-69
2023/04/23 03:38:34;;;;;;;3.77;3.43;;;13.80;99.90;;;;;;4908899;29;20294;-69
2023/04/23 03:41:00;;;;;;;3.67;3.37;;;13.70;99.90;;;;;;4907492;29;20673;-69
2023/04/23 03:43:26;;;;;;;3.60;2.73;;;13.90;99.90;;;;;;4907619;29;20515;-69
2023/04/23 03:45:52;;;;;;;3.17;2.95;;;13.60;99.90;;;;;;4908810;29;20186;-69
2023/04/23 03:48:17;;;;;;;7.70;2.63;;;13.80;99.90;;;;;;4909607;29;20699;-71
2023/04/23 03:50:43;;;;;;;3.53;3.20;;;13.50;99.90;;;;;;4908635;29;20209;-69
2023/04/23 03:53:09;;;;;;;3.43;3.13;;;13.50;99.90;;;;;;4901988;29;20197;-69
2023/04/23 03:55:34;;;;;;;2.97;2.67;;;13.60;99.90;;;;;;4907460;29;20182;-69
2023/04/23 03:58:01;;;;;;;2.93;2.73;;;13.50;99.90;;;;;;4907632;29;20546;-69
2023/04/23 04:00:27;;;;;;;3.58;3.03;;;13.50;99.90;;;;;;4903273;29;20198;-67
2023/04/23 04:02:53;;;;;;;4.80;2.80;;;13.40;99.90;;;;;;4906180;29;20657;-61
2023/04/23 04:05:20;;;;;;;2.80;2.60;;;13.40;99.90;;;;;;4904099;29;20245;-65
2023/04/23 04:07:46;;;;;;;2.20;2.10;;;13.50;99.90;;;;;;4903759;29;20210;-67
2023/04/23 04:10:11;;;;;;;2.53;2.30;;;13.50;99.90;;;;;;4927038;29;20230;-69
2023/04/23 04:12:37;;;;;;;2.50;1.70;;;13.40;99.90;;;;;;4907553;29;20679;-70
2023/04/23 04:15:03;;;;;;;2.67;2.10;;;13.40;99.90;;;;;;4909415;29;20198;-66
2023/04/23 04:17:29;;;;;;;2.70;2.50;;;13.30;99.90;;;;;;4914883;29;20277;-65
2023/04/23 04:19:55;;;;;;;3.07;2.60;;;13.40;99.90;;;;;;4913487;29;20771;-67
2023/04/23 04:22:20;;;;;;;2.50;2.30;;;13.50;99.90;;;;;;4910892;29;20204;-63
2023/04/23 04:24:47;;;;;;;2.43;2.23;;;13.70;99.90;;;;;;4910274;29;20195;-68
2023/04/23 04:27:13;;;;;;;3.03;2.72;;;13.30;99.90;;;;;;4910827;29;20185;-65
2023/04/23 04:29:39;;;;;;;2.72;2.53;;;13.40;99.90;;;;;;4909003;29;20333;-73
2023/04/23 04:32:07;;;;;;;2.88;2.63;;;13.30;99.90;;;;;;4914227;29;20210;-68
2023/04/23 04:34:32;;;;;;;3.00;2.75;;;13.20;99.90;;;;;;4913776;29;20659;-66
2023/04/23 04:36:58;;;;;;;3.03;2.00;;;13.40;99.90;;;;;;4914319;29;20201;-66
2023/04/23 04:39:23;;;;;;;2.37;2.17;;;13.00;99.90;;;;;;4910149;29;20232;-67
2023/04/23 04:41:49;;;;;;;2.53;2.30;;;13.00;99.90;;;;;;4911209;29;21094;-66
2023/04/23 04:44:16;;;;;;;2.87;2.67;;;12.70;99.90;;;;;;4911775;29;20254;-69
2023/04/23 04:46:41;;;;;;;3.50;2.90;;;13.00;99.90;;;;;;4912003;29;20191;-63
2023/04/23 04:49:08;;;;;;;3.13;2.40;;;13.00;99.90;;;;;;4913955;29;20261;-64
2023/04/23 04:51:36;;;;;;;3.33;3.03;;;13.20;99.90;;;;;;4909996;29;20307;-63
2023/04/23 04:54:01;;;;;;;4.65;2.67;;;12.90;99.90;;;;;;4910602;29;20202;-64
2023/04/23 04:56:27;;;;;;;2.77;2.43;;;13.00;99.90;;;;;;4910312;29;20187;-71
2023/04/23 04:58:52;;;;;;;2.40;2.30;;;13.00;99.90;;;;;;4913176;29;20735;-66
2023/04/23 05:01:20;;;;;;;2.50;2.30;;;13.10;99.90;;;;;;4907587;29;20218;-66
2023/04/23 05:03:45;;;;;;;2.83;2.63;;;13.10;99.90;;;;;;4911846;29;20190;-66
2023/04/23 05:06:11;;;;;;;2.80;2.50;;;13.40;99.90;;;;;;4914963;29;20190;-64
2023/04/23 05:08:37;;;;;;;2.70;2.50;;;13.10;99.90;;;;;;4913434;29;20258;-64
2023/04/23 05:11:02;;;;;;;2.50;2.30;;;13.20;99.90;;;;;;4914771;29;20305;-63
2023/04/23 05:13:28;;;;;;;3.00;2.30;;;13.10;99.90;;;;;;4914247;29;20190;-63
2023/04/23 05:15:54;;;;;;;3.00;2.70;;;13.20;99.90;;;;;;4910888;29;20182;-62
2023/04/23 05:18:20;;;;;;;3.30;2.67;;;13.00;99.90;;;;;;4910158;29;20458;-64
2023/04/23 05:20:45;;;;;;;2.57;2.40;;;13.20;99.90;;;;;;4912810;29;20197;-67
2023/04/23 05:23:11;;;;;;;2.93;2.37;;;13.30;99.90;;;;;;4911501;29;20458;-67
2023/04/23 05:25:37;;;;;;;2.50;2.30;;;13.70;99.90;;;;;;4906906;29;20460;-69
2023/04/23 05:28:03;;;;;;;2.77;2.53;;;13.70;99.90;;;;;;4913029;29;20200;-70
2023/04/23 05:30:29;;;;;;;2.13;1.90;;;13.60;99.90;;;;;;4913676;29;20320;-71
2023/04/23 05:32:54;;;;;;;2.87;2.67;;;13.40;99.90;;;;;;4917673;29;20525;-71
2023/04/23 05:35:20;;;;;;;2.77;2.40;;;13.80;99.90;;;;;;4919506;29;20452;-71
2023/04/23 05:37:46;;;;;;;2.23;2.00;;;13.90;99.90;;;;;;4912508;29;20261;-71
2023/04/23 05:40:12;;;;;;;2.37;2.23;;;14.30;99.90;;;;;;4903077;29;20639;-70
2023/04/23 05:42:37;;;;;;;2.00;1.90;;;14.20;99.90;;;;;;4914809;29;20564;-69
2023/04/23 05:45:03;;;;;;;2.13;1.90;;;14.20;99.90;;;;;;4910493;29;20663;-71
2023/04/23 05:47:29;;;;;;;1.70;1.60;;;14.60;99.90;;;;;;4915095;29;20190;-69
2023/04/23 05:49:58;;;;;;;1.90;1.80;;;14.60;99.90;;;;;;4911829;29;20206;-75
2023/04/23 05:52:24;;;;;;;2.20;1.40;;;14.60;99.90;;;;;;4907008;29;20221;-69
2023/04/23 05:54:50;;;;;;;2.13;1.70;;;14.80;99.90;;;;;;4911117;29;20186;-68
2023/04/23 05:57:16;;;;;;;1.63;1.52;;;15.20;99.90;;;;;;4908794;29;20719;-68
2023/04/23 05:59:41;;;;;;;1.33;1.23;;;15.00;99.90;;;;;;4909812;29;20229;-69
2023/04/23 06:02:09;;;;;;;1.20;1.10;;;15.10;99.90;;;;;;4911245;29;20547;-68
2023/04/23 06:04:35;;;;;;;1.10;1.00;;;15.10;99.90;;;;;;4910237;29;20194;-68
2023/04/23 06:07:01;;;;;;;1.45;1.35;;;15.30;99.90;;;;;;4911587;29;20297;-68
2023/04/23 06:09:26;;;;;;;1.30;1.20;;;15.30;99.90;;;;;;4908826;29;20297;-68
2023/04/23 06:11:53;;;;;;;1.37;1.20;;;15.40;99.90;;;;;;4909041;29;20649;-70
2023/04/23 06:14:18;;;;;;;1.55;1.13;;;15.60;99.90;;;;;;4911869;29;20281;-69
2023/04/23 06:16:44;;;;;;;1.30;1.00;;;15.20;99.90;;;;;;4907536;29;20792;-68
2023/04/23 06:19:10;;;;;;;1.10;1.00;;;15.30;99.90;;;;;;4911217;29;20245;-68
2023/04/23 06:21:36;;;;;;;1.08;0.98;;;15.00;99.90;;;;;;4904807;29;20716;-72
2023/04/23 06:24:02;;;;;;;1.27;1.20;;;15.20;99.90;;;;;;4913895;29;20190;-67
2023/04/23 06:26:27;;;;;;;1.00;1.00;;;15.20;99.90;;;;;;4911837;29;20466;-68
2023/04/23 06:28:53;;;;;;;1.10;1.00;;;15.20;99.90;;;;;;4909989;29;20337;-67
2023/04/23 06:31:18;;;;;;;1.50;1.30;;;15.10;99.90;;;;;;4909481;29;20228;-68
2023/04/23 06:33:44;;;;;;;2.40;0.90;;;15.40;99.90;;;;;;4914773;29;20194;-67
2023/04/23 06:36:10;;;;;;;1.40;1.30;;;15.50;99.90;;;;;;4912728;29;20186;-69
2023/04/23 06:38:36;;;;;;;1.30;1.07;;;15.40;99.90;;;;;;4909457;29;20875;-69
2023/04/23 06:41:03;;;;;;;1.30;1.20;;;15.80;99.90;;;;;;4912294;29;20250;-68
2023/04/23 06:43:29;;;;;;;1.25;1.15;;;16.00;99.90;;;;;;4911553;29;20194;-69
2023/04/23 06:45:55;;;;;;;1.40;1.30;;;16.70;99.90;;;;;;4907700;29;20200;-71
2023/04/23 06:48:21;;;;;;;1.57;1.10;;;17.20;99.90;;;;;;4916999;29;20610;-72
2023/04/23 06:50:47;;;;;;;1.00;1.00;;;17.60;99.90;;;;;;4918684;29;20484;-69
2023/04/23 06:53:13;;;;;;;1.92;1.10;;;18.20;99.90;;;;;;4912792;29;20197;-67
2023/04/23 06:55:39;;;;;;;0.85;0.75;;;18.90;98.40;;;;;;4909074;29;20876;-70
2023/04/23 06:58:06;;;;;;;1.43;0.90;;;19.60;96.90;;;;;;4909955;29;20182;-70
2023/04/23 07:00:32;;;;;;;1.20;0.93;;;20.30;95.00;;;;;;4907840;29;20325;-72
2023/04/23 07:02:58;;;;;;;1.37;0.90;;;20.60;93.00;;;;;;4910164;29;20451;-73
2023/04/23 07:05:23;;;;;;;0.90;0.77;;;21.10;92.10;;;;;;4908829;29;20643;-71
2023/04/23 07:07:49;;;;;;;1.00;0.90;;;22.50;90.40;;;;;;4918321;29;20199;-70
2023/04/23 07:10:15;;;;;;;1.33;0.80;;;23.90;85.70;;;;;;4914260;29;20200;-70
2023/04/23 07:12:40;;;;;;;0.80;0.70;;;24.80;80.60;;;;;;4916163;29;20207;-68
2023/04/23 07:15:07;;;;;;;1.83;0.90;;;24.60;79.00;;;;;;4907030;29;20544;-65
2023/04/23 07:17:33;;;;;;;1.10;1.00;;;24.10;79.30;;;;;;4911548;29;20268;-65
2023/04/23 07:19:59;;;;;;;1.00;0.80;;;23.80;79.90;;;;;;4908407;29;20509;-63
2023/04/23 07:22:25;;;;;;;0.70;0.70;;;24.60;78.20;;;;;;4909999;29;20588;-63
2023/04/23 07:24:51;;;;;;;1.20;1.10;;;25.30;75.90;;;;;;4906922;29;20191;-65
2023/04/23 07:27:17;;;;;;;1.00;0.70;;;25.60;74.30;;;;;;4907951;29;20497;-64
2023/04/23 07:29:42;;;;;;;2.03;1.03;;;25.60;72.50;;;;;;4909739;29;21003;-65
2023/04/23 07:32:08;;;;;;;1.30;1.10;;;24.80;70.60;;;;;;4907131;29;20217;-64
2023/04/23 07:34:35;;;;;;;1.30;1.20;;;23.60;73.70;;;;;;4908720;29;20184;-65
2023/04/23 07:37:01;;;;;;;1.30;1.20;;;23.30;75.40;;;;;;4910535;29;20658;-63
2023/04/23 07:39:27;;;;;;;0.97;0.87;;;22.90;75.50;;;;;;4909206;29;20486;-64
2023/04/23 07:41:53;;;;;;;1.20;1.10;;;23.40;75.90;;;;;;4907801;29;20506;-69
2023/04/23 07:44:18;;;;;;;1.07;0.97;;;23.50;73.60;;;;;;4907187;29;20707;-66
2023/04/23 07:46:44;;;;;;;1.30;1.20;;;24.10;72.60;;;;;;4911489;29;20253;-65
2023/04/23 07:49:10;;;;;;;1.20;1.10;;;24.80;70.90;;;;;;4911078;29;20227;-67
2023/04/23 07:51:35;;;;;;;1.40;1.30;;;24.60;70.10;;;;;;4912129;29;20217;-67
2023/04/23 07:54:01;;;;;;;1.00;1.00;;;24.10;72.10;;;;;;4915650;29;20193;-66
2023/04/23 07:56:27;;;;;;;1.20;1.10;;;24.80;70.00;;;;;;4912856;29;20194;-64
2023/04/23 07:58:57;;;;;;;1.90;0.90;;;25.50;68.90;;;;;;4911889;29;20211;-65
2023/04/23 08:01:22;;;;;;;1.00;0.90;;;26.80;63.20;;;;;;4913425;29;20201;-65
2023/04/23 08:03:48;;;;;;;1.43;1.30;;;28.30;61.30;;;;;;4912830;29;21661;-65
2023/04/23 08:06:14;;;;;;;1.47;1.37;;;27.60;59.30;;;;;;4913800;29;20228;-67
2023/04/23 08:08:39;;;;;;;1.60;1.40;;;27.80;58.30;;;;;;4912609;29;20230;-66
2023/04/23 08:11:06;;;;;;;1.50;1.40;;;27.00;58.70;;;;;;4910887;29;20215;-65
2023/04/23 08:13:31;;;;;;;3.27;1.67;;;25.30;60.90;;;;;;4913496;29;20251;-65
2023/04/23 08:15:57;;;;;;;2.57;1.43;;;24.60;64.20;;;;;;4909385;29;20494;-68
2023/04/23 08:18:22;;;;;;;1.50;1.40;;;24.00;65.30;;;;;;4913165;29;20285;-66
2023/04/23 08:20:48;;;;;;;1.37;1.27;;;24.30;66.40;;;;;;4910249;29;20211;-67
2023/04/23 08:23:14;;;;;;;1.53;1.43;;;23.60;65.70;;;;;;4911117;29;20195;-66
2023/04/23 08:25:40;;;;;;;1.97;1.50;;;22.90;70.60;;;;;;4912702;29;20202;-67
2023/04/23 08:28:06;;;;;;;1.50;1.40;;;22.70;69.40;;;;;;4909080;29;20644;-69
2023/04/23 08:30:31;;;;;;;1.27;1.17;;;22.40;70.10;;;;;;4913394;29;20461;-68
2023/04/23 08:32:57;;;;;;;1.60;1.50;;;21.80;72.30;;;;;;4911729;29;20464;-66
2023/04/23 08:35:23;;;;;;;1.50;1.40;;;21.60;72.90;;;;;;4910944;29;20597;-68
2023/04/23 08:37:49;;;;;;;1.60;1.50;;;21.40;74.10;;;;;;4909861;29;21259;-66
2023/04/23 08:40:15;;;;;;;1.40;1.30;;;21.60;74.10;;;;;;4912127;29;20526;-69
2023/04/23 08:42:54;;;;;;;1.63;1.30;;;21.40;73.50;;;;;;4910109;29;20497;-66
2023/04/23 08:45:20;;;;;;;1.70;1.40;;;22.20;73.40;;;;;;4912996;29;20449;-67
2023/04/23 08:47:46;;;;;;;1.30;1.20;;;22.80;71.50;;;;;;4910909;29;20835;-66
2023/04/23 08:50:16;;;;;;;1.30;1.20;;;24.70;67.10;;;;;;4911661;29;20477;-66
2023/04/23 08:52:51;;;;;;;1.30;1.20;;;25.50;62.70;;;;;;4909237;29;20502;-68
2023/04/23 08:55:17;;;;;;;1.43;1.20;;;25.60;61.30;;;;;;4915619;29;20450;-66
2023/04/23 08:57:45;;;;;;;1.93;1.37;;;25.70;60.40;;;;;;4908073;29;20864;-65
2023/04/23 09:00:13;;;;;;;2.13;1.40;;;25.00;60.50;;;;;;4908901;29;20532;-66
2023/04/23 09:02:44;;;;;;;1.40;1.30;;;24.60;62.20;;;;;;4906865;29;20448;-67
2023/04/23 09:05:10;;;;;;;1.70;1.40;;;24.50;62.00;;;;;;4908537;29;21302;-68
2023/04/23 09:07:36;;;;;;;3.87;3.57;;;24.20;63.70;;;;;;4906921;29;20495;-70
2023/04/23 09:10:07;;;;;;;2.03;1.83;;;23.10;64.70;;;;;;4911789;29;21092;-71
2023/04/23 09:12:37;;;;;;;1.43;1.33;;;22.20;67.40;;;;;;4904990;29;20492;-68
2023/04/23 09:15:11;;;;;;;1.27;1.17;;;22.00;67.40;;;;;;4912193;29;20489;-70
2023/04/23 09:17:45;;;;;;;1.30;1.20;;;22.20;67.90;;;;;;4911798;29;20517;-72
2023/04/23 09:20:12;;;;;;;1.23;1.13;;;22.80;67.60;;;;;;4912661;29;20468;-69
2023/04/23 09:22:43;;;;;;;1.73;1.20;;;22.90;66.20;;;;;;4909253;29;20458;-71
2023/04/23 09:25:10;;;;;;;2.23;1.33;;;23.00;65.00;;;;;;4912888;29;20932;-69
2023/04/23 09:27:37;;;;;;;1.50;1.40;;;23.20;63.20;;;;;;4912896;29;20456;-71
2023/04/23 09:30:07;;;;;;;2.70;1.60;;;23.50;62.90;;;;;;4909760;29;20592;-69
2023/04/23 09:32:34;;;;;;;1.17;1.07;;;23.70;61.10;;;;;;4910646;29;20491;-71
2023/04/23 09:35:03;;;;;;;1.23;1.13;;;23.30;61.60;;;;;;4912558;29;20448;-68
2023/04/23 09:37:29;;;;;;;1.55;1.10;;;22.90;62.30;;;;;;4911526;29;21143;-67
2023/04/23 09:39:58;;;;;;;3.10;1.20;;;23.10;62.80;;;;;;4915323;29;20210;-67
2023/04/23 09:42:25;;;;;;;1.53;1.10;;;23.50;62.80;;;;;;4909958;29;20543;-69
2023/04/23 09:45:09;;;;;;;1.10;1.00;;;23.80;61.40;;;;;;4913994;29;20927;-67
2023/04/23 09:47:41;;;;;;;1.10;1.00;;;24.60;60.90;;;;;;4914811;29;20537;-67
2023/04/23 09:50:09;;;;;;;2.10;1.07;;;25.00;60.30;;;;;;4914359;29;20478;-67
2023/04/23 09:52:38;;;;;;;1.37;1.27;;;24.90;58.00;;;;;;4909292;29;20982;-67
2023/04/23 09:55:04;;;;;;;1.37;1.27;;;25.30;57.80;;;;;;4907580;29;20481;-67
2023/04/23 09:57:41;;;;;;;1.07;0.97;;;24.80;58.40;;;;;;4913293;29;20449;-67
2023/04/23 10:00:17;;;;;;;2.17;1.27;;;25.40;56.70;;;;;;4908057;29;20510;-67
2023/04/23 10:02:50;;;;;;;1.30;1.20;;;26.50;57.50;;;;;;4911895;29;20437;-68
2023/04/23 10:05:18;;;;;;;1.30;1.20;;;25.80;56.70;;;;;;4909010;29;20457;-66
2023/04/23 10:07:47;;;;;;;1.27;1.17;;;25.40;56.20;;;;;;4915484;29;20506;-66
2023/04/23 10:10:18;;;;;;;1.30;1.20;;;24.70;55.50;;;;;;4909386;29;20474;-68
2023/04/23 10:12:44;;;;;;;1.70;1.50;;;24.50;56.70;;;;;;4909534;29;20849;-66
2023/04/23 10:15:11;;;;;;;1.30;1.07;;;24.10;56.20;;;;;;4910937;29;21003;-66
2023/04/23 10:17:37;;;;;;;2.10;1.13;;;23.60;57.90;;;;;;4909683;29;20448;-67
2023/04/23 10:20:05;;;;;;;1.10;1.00;;;24.30;58.50;;;;;;4911037;29;20983;-66
2023/04/23 10:22:33;;;;;;;1.40;1.20;;;24.70;57.70;;;;;;4911318;29;20457;-66
2023/04/23 10:25:03;;;;;;;1.03;0.93;;;24.40;58.00;;;;;;4910249;29;20470;-66
2023/04/23 10:27:30;;;;;;;1.70;1.27;;;24.30;58.00;;;;;;4910816;29;20454;-66
2023/04/23 10:30:00;;;;;;;1.30;1.20;;;23.70;58.20;;;;;;4906850;29;21055;-66
2023/04/23 10:32:26;;;;;;;1.20;1.10;;;23.50;58.30;;;;;;4911665;29;20496;-66
2023/04/23 10:34:53;;;;;;;1.23;1.13;;;23.50;58.20;;;;;;4914015;29;20448;-66
2023/04/23 10:37:19;;;;;;;3.23;2.37;;;23.40;58.90;;;;;;4911451;29;20780;-65
2023/04/23 10:39:52;;;;;;;1.13;1.00;;;23.50;58.20;;;;;;4905512;29;20465;-66
2023/04/23 10:42:18;;;;;;;1.30;1.07;;;23.50;56.70;;;;;;4907592;29;20736;-69
2023/04/23 10:44:44;;;;;;;1.00;1.00;;;23.40;58.30;;;;;;4911591;29;20450;-68
2023/04/23 10:47:16;;;;;;;2.63;1.10;;;23.20;59.20;;;;;;4911554;29;20458;-66
2023/04/23 10:49:43;;;;;;;1.10;1.00;;;23.50;59.10;;;;;;4911859;29;20601;-69
2023/04/23 10:52:13;;;;;;;1.80;1.00;;;23.90;58.80;;;;;;4911877;29;20496;-67
2023/04/23 10:54:40;;;;;;;1.33;0.90;;;24.40;57.30;;;;;;4910131;29;20456;-66
2023/04/23 10:57:07;;;;;;;1.07;0.97;;;24.00;57.70;;;;;;4911013;29;20441;-66
2023/04/23 10:59:37;;;;;;;0.80;0.80;;;24.20;57.60;;;;;;4910883;29;20999;-66
2023/04/23 11:02:11;;;;;;;2.80;1.10;;;24.10;57.20;;;;;;4909734;29;20510;-66
2023/04/23 11:04:53;;;;;;;1.17;1.07;;;23.60;57.70;;;;;;4910745;29;20910;-65
2023/04/23 11:07:19;;;;;;;1.30;0.87;;;23.50;58.20;;;;;;4906573;29;20450;-66
2023/04/23 11:09:49;;;;;;;0.93;0.90;;;23.30;57.80;;;;;;4907824;29;20469;-66
2023/04/23 11:12:23;;;;;;;0.90;0.90;;;22.80;58.40;;;;;;4909306;29;20250;-67
2023/04/23 11:14:50;;;;;;;1.70;1.60;;;22.60;59.90;;;;;;4906448;29;20441;-67
2023/04/23 11:17:17;;;;;;;1.20;1.10;;;22.50;60.30;;;;;;4909727;29;20955;-66
2023/04/23 11:20:12;;;;;;;1.60;1.50;;;22.40;61.70;;;;;;4920182;29;21054;-67
2023/04/23 11:22:46;;;;;;;1.23;1.00;;;21.80;62.60;;;;;;4909445;29;20513;-67
2023/04/23 11:25:14;;;;;;;1.40;1.30;;;21.60;63.10;;;;;;4908084;29;21026;-67
2023/04/23 11:27:43;;;;;;;1.43;1.33;;;21.60;62.80;;;;;;4915693;29;20517;-68
2023/04/23 11:30:20;;;;;;;1.57;1.07;;;22.10;61.80;;;;;;4911134;29;20480;-67
2023/04/23 11:32:50;;;;;;;1.40;1.30;;;22.10;61.90;;;;;;4910360;29;20804;-67
2023/04/23 11:35:19;;;;;;;1.77;1.10;;;22.10;62.20;;;;;;4909567;29;21364;-69
2023/04/23 11:37:47;;;;;;;1.30;0.90;;;22.20;61.20;;;;;;4910918;29;20442;-69
2023/04/23 11:40:18;;;;;;;2.30;1.23;;;22.40;61.20;;;;;;4908044;29;20484;-68
2023/04/23 11:42:46;;;;;;;1.53;1.13;;;22.30;62.10;;;;;;4910275;29;20458;-66
2023/04/23 11:45:27;;;;;;;1.13;1.03;;;22.30;61.50;;;;;;4907579;29;20449;-67
2023/04/23 11:47:57;;;;;;;1.13;1.03;;;22.90;60.60;;;;;;4907799;29;20450;-67
2023/04/23 11:50:26;;;;;;;1.07;1.00;;;22.90;61.10;;;;;;4910732;29;20530;-68
2023/04/23 11:52:52;;;;;;;1.07;0.90;;;22.90;59.20;;;;;;4907091;29;20491;-68
2023/04/23 11:55:18;;;;;;;0.90;0.80;;;23.40;59.50;;;;;;4911534;29;20881;-68
2023/04/23 11:57:46;;;;;;;1.27;1.17;;;23.50;59.30;;;;;;4914504;29;20464;-68
2023/04/23 12:00:23;;;;;;;1.40;1.30;;;22.50;59.70;;;;;;4908210;29;20490;-67
2023/04/23 12:02:57;;;;;;;1.20;1.00;;;22.80;60.30;;;;;;4914999;29;20453;-67
2023/04/23 12:05:31;;;;;;;1.20;0.97;;;22.80;59.60;;;;;;4908112;29;20534;-67
2023/04/23 12:08:15;;;;;;;1.00;0.90;;;22.70;59.70;;;;;;4907382;29;20457;-67
2023/04/23 12:11:02;;;;;;;1.10;1.00;;;22.80;59.90;;;;;;4909486;29;20468;-69
2023/04/23 12:13:32;;;;;;;1.20;1.10;;;22.80;59.50;;;;;;4910021;29;20441;-67
2023/04/23 12:16:05;;;;;;;1.10;1.00;;;22.60;59.20;;;;;;4907473;29;20439;-67
2023/04/23 12:18:39;;;;;;;1.43;1.20;;;22.30;60.40;;;;;;4908427;29;20482;-67
2023/04/23 12:21:06;;;;;;;1.20;1.10;;;21.90;60.50;;;;;;4917264;29;20453;-67
2023/04/23 12:23:35;;;;;;;1.43;1.33;;;21.80;61.70;;;;;;4910652;29;20450;-68
2023/04/23 12:26:05;;;;;;;1.37;1.27;;;21.90;62.20;;;;;;4906770;29;20455;-67
2023/04/23 12:28:31;;;;;;;2.58;1.10;;;21.80;63.50;;;;;;4909372;29;20808;-67
2023/04/23 12:31:01;;;;;;;0.90;0.90;;;21.60;64.20;;;;;;4910061;29;20312;-67
2023/04/23 12:33:30;;;;;;;1.20;1.10;;;21.60;64.00;;;;;;4914551;29;20533;-67
2023/04/23 12:35:56;;;;;;;1.53;1.10;;;21.80;64.20;;;;;;4913735;29;20485;-67
2023/04/23 12:38:28;;;;;;;1.10;0.97;;;21.90;64.20;;;;;;4912379;29;20942;-67
2023/04/23 12:40:58;;;;;;;1.80;1.00;;;21.90;63.20;;;;;;4916418;29;21065;-67
2023/04/23 12:43:25;;;;;;;1.30;1.10;;;21.80;64.10;;;;;;4914486;29;20448;-68
2023/04/23 12:45:51;;;;;;;1.33;1.23;;;21.90;63.40;;;;;;4917082;29;20562;-70
2023/04/23 12:48:17;;;;;;;1.20;1.10;;;21.70;63.70;;;;;;4917455;29;20473;-70